Terminal Aerodrome Forecast
Issued by NWS

Home | Current Version | Previous Version | Text Only | Print | Product List | Glossary On
Versions: 1 2 3 4 5 6 7 8 9 10 11 12 13 14 15 16 17 18 19 20 21 22 23 24 25 26 27 28 29 30 31 32 33 34 35 36 37 38 39 40 41 42 43
000
FTUS45 KPSR 050520
TAFIWA
TAF
KIWA 050520Z 0506/0606 20011KT P6SM FEW080 BKN120 BKN200
     FM050700 12007KT P6SM VCSH BKN070 OVC120
     FM051200 12006KT P6SM SCT070 BKN140 BKN200
     FM051900 28010KT P6SM SCT080 SCT150 BKN250
      AMD LTD TO CLD VIS AND WIND TIL 051300=

USA.gov is the U.S. government's official web portal to all federal, state and local government web resources and services.